createdAt,value
2022-11-18T00:01:28.095Z,13.33
2022-11-18T00:04:14.317Z,12.87
2022-11-18T00:06:59.567Z,12.80
2022-11-18T00:09:45.284Z,14.00
2022-11-18T00:12:30.156Z,11.27
2022-11-18T00:15:15.555Z,13.70
2022-11-18T00:18:00.797Z,13.30
2022-11-18T00:20:46.179Z,13.77
2022-11-18T00:23:31.919Z,13.40
2022-11-18T00:26:17.079Z,13.87
2022-11-18T00:29:02.395Z,15.17
2022-11-18T00:31:48.178Z,12.17
2022-11-18T00:34:33.655Z,14.03
2022-11-18T00:37:19.053Z,13.40
2022-11-18T00:40:04.896Z,14.87
2022-11-18T00:42:50.292Z,13.33
2022-11-18T00:45:35.867Z,13.53
2022-11-18T00:48:21.399Z,12.93
2022-11-18T00:51:26.814Z,15.13
2022-11-18T00:54:12.168Z,14.97
2022-11-18T00:56:57.317Z,14.67
2022-11-18T00:59:42.556Z,14.27
2022-11-18T01:02:27.342Z,14.33
2022-11-18T01:05:12.720Z,15.63
2022-11-18T01:07:57.811Z,15.20
2022-11-18T01:10:43.345Z,17.70
2022-11-18T01:13:28.555Z,16.20
2022-11-18T01:16:19.202Z,16.60
2022-11-18T01:19:04.460Z,16.63
2022-11-18T01:21:50.429Z,17.33
2022-11-18T01:24:35.948Z,16.13
2022-11-18T01:27:21.529Z,15.53
2022-11-18T01:30:07.416Z,18.53
2022-11-18T01:32:52.347Z,16.53
2022-11-18T01:35:43.223Z,15.60
2022-11-18T01:38:28.498Z,14.70
2022-11-18T01:41:14.001Z,13.73
2022-11-18T01:44:05.046Z,15.03
2022-11-18T01:46:50.469Z,15.43
2022-11-18T01:49:35.836Z,15.73
2022-11-18T01:52:22.492Z,15.30
2022-11-18T01:55:13.185Z,15.77
2022-11-18T01:58:12.731Z,15.00
2022-11-18T02:00:59.483Z,14.07
2022-11-18T02:03:46.585Z,16.43
2022-11-18T02:06:31.998Z,16.23
2022-11-18T02:09:17.492Z,16.67
2022-11-18T02:12:03.568Z,16.50
2022-11-18T02:14:49.060Z,14.60
2022-11-18T02:17:47.560Z,15.47
2022-11-18T02:20:47.824Z,12.13
2022-11-18T02:23:39.153Z,11.40
2022-11-18T02:26:36.296Z,10.30
2022-11-18T02:29:26.732Z,19.50
2022-11-18T02:32:16.216Z,19.67
2022-11-18T02:35:19.024Z,9.50
2022-11-18T02:38:13.060Z,10.63
2022-11-18T02:41:10.919Z,13.53
2022-11-18T02:44:02.112Z,12.67
2022-11-18T02:46:51.488Z,15.33
2022-11-18T02:49:42.065Z,14.60
2022-11-18T02:52:27.985Z,16.33
2022-11-18T02:55:15.401Z,17.37
2022-11-18T02:58:02.624Z,17.90
2022-11-18T03:01:00.371Z,16.40
2022-11-18T03:03:45.732Z,15.70
2022-11-18T03:06:37.949Z,16.67
2022-11-18T03:09:31.277Z,16.00
2022-11-18T03:12:16.422Z,17.20
2022-11-18T03:15:18.698Z,12.00
2022-11-18T03:18:25.334Z,13.90
2022-11-18T03:21:19.110Z,10.07
2022-11-18T03:24:13.183Z,9.57
2022-11-18T03:27:07.415Z,14.80
2022-11-18T03:30:02.142Z,13.97
2022-11-18T03:32:57.798Z,13.70
2022-11-18T03:35:46.526Z,12.47
2022-11-18T03:38:37.491Z,11.30
2022-11-18T03:41:25.292Z,13.07
2022-11-18T03:44:16.969Z,12.53
2022-11-18T03:47:09.164Z,13.80
2022-11-18T03:50:00.864Z,15.77
2022-11-18T03:52:47.898Z,11.77
2022-11-18T03:55:40.340Z,13.10
2022-11-18T03:58:36.186Z,14.37
2022-11-18T04:01:51.169Z,18.23
2022-11-18T04:04:36.739Z,20.20
2022-11-18T04:07:32.529Z,19.73
2022-11-18T04:10:20.668Z,18.20
2022-11-18T04:13:16.087Z,17.87
2022-11-18T04:16:02.265Z,15.37
2022-11-18T04:18:47.111Z,18.70
2022-11-18T04:21:32.129Z,17.33
2022-11-18T04:24:17.201Z,17.83
2022-11-18T04:27:03.335Z,19.97
2022-11-18T04:29:48.344Z,20.40
2022-11-18T04:32:33.405Z,20.93
2022-11-18T04:35:19.159Z,15.70
2022-11-18T04:38:05.213Z,12.00
2022-11-18T04:40:50.451Z,16.67
2022-11-18T04:43:35.431Z,16.87
2022-11-18T04:46:20.352Z,21.20
2022-11-18T04:49:05.944Z,16.90
2022-11-18T04:51:52.038Z,16.50
2022-11-18T04:54:37.279Z,16.07
2022-11-18T04:57:22.612Z,18.37
2022-11-18T05:00:08.005Z,19.50
2022-11-18T05:02:53.185Z,22.13
2022-11-18T05:05:38.142Z,20.13
2022-11-18T05:08:23.691Z,23.37
2022-11-18T05:11:09.159Z,22.87
2022-11-18T05:13:54.493Z,22.13
2022-11-18T05:16:39.973Z,27.00
2022-11-18T05:19:25.845Z,23.93
2022-11-18T05:22:11.414Z,25.37
2022-11-18T05:24:56.674Z,23.30
2022-11-18T05:27:42.082Z,12.33
2022-11-18T05:30:28.093Z,24.37
2022-11-18T05:33:13.166Z,24.00
2022-11-18T05:35:58.251Z,27.50
2022-11-18T05:38:43.890Z,27.17
2022-11-18T05:41:28.779Z,26.57
2022-11-18T05:44:14.594Z,25.17
2022-11-18T05:46:59.377Z,26.53
2022-11-18T05:49:44.474Z,24.00
2022-11-18T05:52:29.856Z,25.13
2022-11-18T05:55:17.214Z,26.67
2022-11-18T05:58:02.229Z,27.53
2022-11-18T06:00:50.637Z,13.10
2022-11-18T06:03:38.354Z,18.13
2022-11-18T06:06:24.627Z,19.57
2022-11-18T06:09:11.072Z,24.73
2022-11-18T06:11:59.016Z,26.67
2022-11-18T06:14:49.822Z,27.67
2022-11-18T06:17:50.579Z,28.20
2022-11-18T06:20:40.346Z,23.83
2022-11-18T06:23:28.732Z,21.40
2022-11-18T06:26:15.771Z,24.43
2022-11-18T06:29:01.163Z,26.37
2022-11-18T06:31:46.190Z,29.17
2022-11-18T06:34:34.497Z,36.07
2022-11-18T06:37:22.005Z,39.17
2022-11-18T06:40:07.806Z,43.23
2022-11-18T06:42:53.040Z,43.87
2022-11-18T06:45:38.265Z,44.80
2022-11-18T06:48:23.982Z,42.83
2022-11-18T06:51:09.208Z,40.53
2022-11-18T06:53:54.656Z,39.43
2022-11-18T06:56:39.760Z,37.10
2022-11-18T06:59:24.913Z,36.13
2022-11-18T07:02:10.348Z,34.27
2022-11-18T07:04:55.270Z,36.10
2022-11-18T07:07:42.352Z,37.00
2022-11-18T07:10:29.012Z,32.83
2022-11-18T07:13:14.164Z,34.10
2022-11-18T07:16:04.206Z,33.83
2022-11-18T07:18:50.867Z,32.93
2022-11-18T07:21:36.290Z,33.40
2022-11-18T07:24:21.413Z,29.93
2022-11-18T07:27:06.782Z,31.67
2022-11-18T07:29:52.330Z,30.47
2022-11-18T07:32:37.797Z,31.20
2022-11-18T07:35:22.917Z,42.30
2022-11-18T07:38:08.011Z,29.43
2022-11-18T07:40:53.178Z,31.33
2022-11-18T07:43:39.656Z,29.23
2022-11-18T07:46:30.311Z,30.77
2022-11-18T07:49:46.501Z,28.23
2022-11-18T07:52:31.436Z,29.13
2022-11-18T07:55:16.655Z,30.50
2022-11-18T07:58:02.046Z,28.50
2022-11-18T08:08:14.968Z,30.47
2022-11-18T08:11:02.768Z,32.53
2022-11-18T08:13:48.083Z,30.83
2022-11-18T08:16:33.494Z,29.47
2022-11-18T08:19:19.273Z,33.20
2022-11-18T08:22:05.636Z,30.57
2022-11-18T08:24:50.548Z,37.07
2022-11-18T08:27:36.091Z,34.40
2022-11-18T08:30:21.402Z,45.10
2022-11-18T08:33:06.567Z,37.90
2022-11-18T08:35:52.158Z,33.50
2022-11-18T08:38:37.377Z,36.43
2022-11-18T08:41:33.010Z,35.07
2022-11-18T08:44:18.500Z,32.43
2022-11-18T08:47:04.127Z,33.57
2022-11-18T08:49:49.279Z,32.13
2022-11-18T08:52:35.308Z,33.77
2022-11-18T08:55:20.629Z,34.60
2022-11-18T08:58:05.640Z,32.67
2022-11-18T09:00:50.971Z,34.67
2022-11-18T09:03:36.434Z,33.70
2022-11-18T09:06:22.923Z,35.83
2022-11-18T09:09:08.526Z,34.03
2022-11-18T09:11:53.731Z,38.70
2022-11-18T09:15:13.066Z,36.77
2022-11-18T09:17:43.812Z,37.90
2022-11-18T09:20:28.814Z,37.87
2022-11-18T09:23:14.143Z,36.17
2022-11-18T09:26:01.843Z,36.47
2022-11-18T09:28:47.224Z,32.77
2022-11-18T09:31:32.588Z,27.13
2022-11-18T09:34:18.683Z,28.70
2022-11-18T09:37:07.144Z,30.97
2022-11-18T09:39:52.411Z,30.03
2022-11-18T09:42:48.023Z,26.87
2022-11-18T09:45:41.535Z,28.33
2022-11-18T09:48:27.723Z,28.17
2022-11-18T09:51:12.786Z,26.60
2022-11-18T09:53:57.819Z,27.53
2022-11-18T09:56:42.741Z,26.87
2022-11-18T09:59:31.579Z,26.70
2022-11-18T10:02:30.017Z,24.90
2022-11-18T10:05:19.354Z,24.73
2022-11-18T10:08:26.491Z,23.90
2022-11-18T10:11:19.653Z,22.47
2022-11-18T10:14:31.823Z,20.83
2022-11-18T10:17:35.138Z,21.00
2022-11-18T10:20:31.462Z,21.50
2022-11-18T10:23:29.770Z,20.97
2022-11-18T10:26:14.909Z,21.23
2022-11-18T10:29:00.133Z,21.37
2022-11-18T10:31:59.768Z,22.03
2022-11-18T10:34:57.740Z,21.63
2022-11-18T10:38:06.720Z,23.70
2022-11-18T10:41:04.777Z,23.20
2022-11-18T10:43:56.826Z,23.30
2022-11-18T10:46:41.962Z,24.90
2022-11-18T10:49:27.629Z,24.37
2022-11-18T10:52:14.769Z,27.77
2022-11-18T10:55:30.081Z,24.73
2022-11-18T10:58:16.166Z,24.70
2022-11-18T11:01:26.317Z,22.23
2022-11-18T11:04:24.500Z,20.10
2022-11-18T11:07:24.139Z,19.10
2022-11-18T11:10:12.375Z,17.63
2022-11-18T11:13:10.063Z,17.97
2022-11-18T11:16:00.107Z,29.90
2022-11-18T11:18:50.719Z,20.23
2022-11-18T11:21:36.300Z,18.13
2022-11-18T11:24:26.128Z,18.83
2022-11-18T11:30:52.649Z,19.30
2022-11-18T11:33:53.067Z,21.87
2022-11-18T11:36:51.615Z,19.20
2022-11-18T11:39:55.141Z,16.93
2022-11-18T11:42:53.000Z,15.83
2022-11-18T11:45:57.788Z,14.73
2022-11-18T11:48:49.342Z,14.77
2022-11-18T11:52:11.334Z,15.00
2022-11-18T11:55:06.496Z,14.30
2022-11-18T11:58:31.473Z,14.20
2022-11-18T12:01:32.444Z,16.57
2022-11-18T12:04:37.350Z,14.90
2022-11-18T12:07:29.705Z,13.70
2022-11-18T12:10:27.571Z,14.77
2022-11-18T12:13:33.987Z,14.53
2022-11-18T12:16:34.225Z,15.23
2022-11-18T12:19:22.454Z,14.17
2022-11-18T12:22:07.317Z,13.23
2022-11-18T12:24:52.262Z,13.23
2022-11-18T12:27:37.508Z,14.03
2022-11-18T12:30:22.899Z,14.63
2022-11-18T12:33:16.606Z,15.30
2022-11-18T12:36:01.981Z,16.37
2022-11-18T12:38:47.233Z,15.37
2022-11-18T12:41:41.750Z,14.73
2022-11-18T12:44:28.755Z,15.23
2022-11-18T12:47:36.669Z,15.63
2022-11-18T12:50:46.958Z,14.83
2022-11-18T12:53:39.889Z,15.07
2022-11-18T12:56:33.580Z,16.03
2022-11-18T12:59:28.232Z,17.27
2022-11-18T13:02:19.537Z,16.30
2022-11-18T13:05:08.184Z,34.10
2022-11-18T13:08:11.544Z,16.80
2022-11-18T13:11:08.653Z,17.63
2022-11-18T13:13:54.420Z,16.00
2022-11-18T13:16:39.913Z,17.80
2022-11-18T13:19:25.673Z,16.37
2022-11-18T13:22:18.619Z,15.20
2022-11-18T13:25:05.800Z,15.57
2022-11-18T13:28:15.833Z,15.07
2022-11-18T13:31:16.192Z,17.30
2022-11-18T13:34:12.209Z,15.33
2022-11-18T13:37:00.125Z,15.37
2022-11-18T13:39:47.439Z,15.13
2022-11-18T13:42:33.429Z,15.13
2022-11-18T13:45:21.109Z,15.07
2022-11-18T13:48:14.926Z,14.03
2022-11-18T13:51:01.261Z,16.67
2022-11-18T13:53:47.309Z,16.40
2022-11-18T13:56:35.071Z,15.70
2022-11-18T13:59:23.918Z,16.43
2022-11-18T14:02:13.206Z,16.30
2022-11-18T14:04:59.748Z,15.67
2022-11-18T14:08:01.382Z,15.13
2022-11-18T14:10:46.807Z,14.73
2022-11-18T14:13:51.715Z,14.27
2022-11-18T14:16:41.668Z,15.23
2022-11-18T14:19:32.483Z,16.23
2022-11-18T14:22:23.970Z,18.00
2022-11-18T14:25:17.207Z,20.37
2022-11-18T14:28:17.860Z,19.27
2022-11-18T14:31:21.717Z,17.40
2022-11-18T14:34:26.243Z,18.33
2022-11-18T14:37:13.627Z,17.50
2022-11-18T14:39:58.600Z,17.10
2022-11-18T14:42:43.890Z,19.10
2022-11-18T14:45:29.395Z,19.50
2022-11-18T14:48:18.861Z,17.23
2022-11-18T14:51:03.765Z,17.67
2022-11-18T14:53:48.860Z,17.00
2022-11-18T14:56:34.779Z,16.80
2022-11-18T14:59:20.971Z,20.73
2022-11-18T15:02:12.732Z,17.90
2022-11-18T15:04:57.950Z,14.93
2022-11-18T15:07:43.022Z,17.23
2022-11-18T15:10:28.458Z,15.13
2022-11-18T15:13:13.602Z,15.97
2022-11-18T15:15:58.747Z,14.90
2022-11-18T15:18:47.341Z,14.17
2022-11-18T15:21:33.313Z,15.37
2022-11-18T15:24:18.645Z,13.63
2022-11-18T15:27:04.281Z,20.30
2022-11-18T15:29:49.362Z,17.70
2022-11-18T15:32:34.358Z,16.07
2022-11-18T15:35:20.357Z,15.37
2022-11-18T15:38:05.626Z,16.80
2022-11-18T15:40:51.038Z,14.63
2022-11-18T15:43:35.880Z,14.40
2022-11-18T15:46:22.361Z,13.90
2022-11-18T15:49:11.626Z,15.27
2022-11-18T15:51:56.535Z,22.47
2022-11-18T15:54:41.574Z,16.53
2022-11-18T15:57:26.769Z,14.67
2022-11-18T16:00:12.436Z,13.73
2022-11-18T16:02:57.604Z,13.67
2022-11-18T16:05:42.844Z,13.20
2022-11-18T16:08:29.711Z,13.77
2022-11-18T16:11:16.759Z,13.27
2022-11-18T16:14:03.112Z,15.30
2022-11-18T16:16:50.494Z,14.50
2022-11-18T16:19:35.927Z,15.63
2022-11-18T16:22:20.969Z,13.97
2022-11-18T16:25:06.313Z,13.30
2022-11-18T16:27:51.218Z,13.30
2022-11-18T16:30:36.142Z,13.27
2022-11-18T16:33:21.079Z,15.53
2022-11-18T16:36:06.927Z,12.80
2022-11-18T16:38:52.388Z,10.70
2022-11-18T16:41:39.462Z,10.37
2022-11-18T16:44:24.782Z,11.10
2022-11-18T16:47:14.920Z,9.73
2022-11-18T16:50:00.818Z,11.60
2022-11-18T16:52:46.154Z,15.57
2022-11-18T16:55:31.204Z,12.17
2022-11-18T16:58:16.129Z,14.90
2022-11-18T17:01:18.974Z,12.97
2022-11-18T17:04:06.003Z,12.40
2022-11-18T17:06:51.555Z,14.37
2022-11-18T17:09:36.600Z,11.43
2022-11-18T17:12:21.730Z,13.17
2022-11-18T17:15:07.175Z,11.10
2022-11-18T17:17:52.222Z,11.57
2022-11-18T17:20:37.119Z,10.10
2022-11-18T17:23:21.941Z,11.20
2022-11-18T17:26:08.457Z,11.40
2022-11-18T17:28:56.580Z,11.40
2022-11-18T17:31:42.193Z,12.13
2022-11-18T17:34:27.161Z,11.80
2022-11-18T17:37:11.982Z,11.77
2022-11-18T17:39:57.018Z,10.90
2022-11-18T17:42:41.911Z,11.17
2022-11-18T17:45:26.702Z,9.70
2022-11-18T17:48:11.833Z,10.30
2022-11-18T17:51:05.522Z,14.07
2022-11-18T17:53:51.280Z,11.13
2022-11-18T17:56:36.468Z,11.03
2022-11-18T17:59:21.620Z,11.30
2022-11-18T18:02:06.829Z,13.60
2022-11-18T18:04:52.314Z,11.67
2022-11-18T18:07:37.812Z,11.60
2022-11-18T18:10:24.719Z,13.73
2022-11-18T18:13:09.971Z,13.90
2022-11-18T18:16:00.322Z,13.17
2022-11-18T18:18:45.288Z,12.07
2022-11-18T18:21:30.356Z,12.83
2022-11-18T18:24:15.912Z,13.83
2022-11-18T18:27:01.492Z,12.37
2022-11-18T18:29:46.884Z,12.77
2022-11-18T18:32:32.140Z,13.87
2022-11-18T18:35:17.453Z,13.40
2022-11-18T18:38:02.636Z,13.90
2022-11-18T18:40:48.190Z,13.57
2022-11-18T18:43:33.300Z,13.87
2022-11-18T18:46:23.659Z,14.47
2022-11-18T18:49:11.613Z,15.87
2022-11-18T18:51:56.786Z,14.77
2022-11-18T18:54:41.833Z,16.87
2022-11-18T18:57:28.298Z,16.63
2022-11-18T19:00:14.276Z,19.77
2022-11-18T19:02:59.708Z,19.87
2022-11-18T19:06:17.384Z,18.30
2022-11-18T19:08:49.823Z,18.57
2022-11-18T19:11:36.078Z,19.20
2022-11-18T19:14:22.190Z,19.83
2022-11-18T19:17:11.366Z,21.03
2022-11-18T19:19:57.217Z,19.80
2022-11-18T19:22:42.185Z,19.63
2022-11-18T19:25:27.302Z,20.40
2022-11-18T19:28:12.651Z,20.60
2022-11-18T19:30:59.567Z,57.43
2022-11-18T19:33:44.992Z,24.47
2022-11-18T19:36:30.568Z,23.07
2022-11-18T19:39:15.701Z,22.83
2022-11-18T19:42:01.718Z,22.67
2022-11-18T19:44:47.138Z,22.13
2022-11-18T19:47:32.254Z,23.87
2022-11-18T19:50:17.861Z,25.70
2022-11-18T19:53:03.135Z,22.93
2022-11-18T19:55:56.426Z,21.83
2022-11-18T19:58:43.358Z,21.87
2022-11-18T20:01:29.286Z,21.30
2022-11-18T20:04:14.246Z,21.07
2022-11-18T20:06:59.742Z,19.53
2022-11-18T20:09:45.002Z,22.60
2022-11-18T20:12:30.550Z,23.53
2022-11-18T20:15:15.512Z,23.53
2022-11-18T20:18:00.795Z,24.40
2022-11-18T20:20:46.067Z,26.13
2022-11-18T20:23:31.664Z,26.90
2022-11-18T20:26:19.583Z,28.50
2022-11-18T20:29:06.384Z,26.37
2022-11-18T20:31:51.350Z,25.97
2022-11-18T20:34:36.396Z,25.70
2022-11-18T20:37:27.628Z,23.40
2022-11-18T20:40:12.960Z,24.70
2022-11-18T20:42:57.823Z,25.80
2022-11-18T20:45:43.132Z,26.53
2022-11-18T20:48:27.955Z,27.03
2022-11-18T20:51:16.985Z,27.53
2022-11-18T20:54:02.025Z,26.90
2022-11-18T20:56:47.528Z,28.23
2022-11-18T20:59:32.929Z,27.43
2022-11-18T21:02:17.939Z,26.73
2022-11-18T21:05:03.157Z,26.97
2022-11-18T21:07:48.171Z,27.97
2022-11-18T21:10:34.076Z,26.10
2022-11-18T21:13:19.282Z,27.10
2022-11-18T21:16:04.509Z,28.70
2022-11-18T21:18:49.727Z,24.47
2022-11-18T21:21:35.002Z,25.10
2022-11-18T21:24:24.054Z,25.77
2022-11-18T21:27:09.619Z,26.47
2022-11-18T21:29:55.031Z,26.27
2022-11-18T21:32:40.370Z,26.27
2022-11-18T21:35:25.866Z,25.60
2022-11-18T21:38:11.296Z,27.07
2022-11-18T21:41:02.608Z,27.30
2022-11-18T21:44:04.979Z,27.83
2022-11-18T21:46:51.250Z,28.63
2022-11-18T21:49:36.052Z,27.83
2022-11-18T21:52:21.360Z,29.03
2022-11-18T21:55:06.898Z,30.13
2022-11-18T21:57:51.967Z,31.67
2022-11-18T22:00:37.381Z,30.53
2022-11-18T22:03:22.947Z,28.00
2022-11-18T22:06:10.958Z,29.53
2022-11-18T22:08:56.301Z,30.40
2022-11-18T22:11:41.443Z,31.27
2022-11-18T22:14:26.725Z,29.50
2022-11-18T22:17:12.081Z,31.00
2022-11-18T22:19:57.093Z,28.80
2022-11-18T22:22:42.581Z,30.83
2022-11-18T22:25:27.893Z,31.83
2022-11-18T22:28:13.358Z,32.13
2022-11-18T22:31:06.364Z,31.23
2022-11-18T22:33:52.690Z,32.57
2022-11-18T22:36:37.547Z,32.43
2022-11-18T22:39:22.829Z,31.90
2022-11-18T22:42:08.801Z,111.57
2022-11-18T22:44:53.829Z,30.20
2022-11-18T22:47:38.800Z,29.20
2022-11-18T22:50:23.776Z,30.33
2022-11-18T22:53:08.671Z,30.83
2022-11-18T22:56:06.135Z,30.73
2022-11-18T22:58:51.487Z,32.03
2022-11-18T23:01:36.866Z,32.37
2022-11-18T23:04:21.931Z,31.37
2022-11-18T23:07:07.430Z,33.33
2022-11-18T23:09:52.873Z,31.57
2022-11-18T23:12:38.159Z,32.57
2022-11-18T23:15:23.074Z,33.37
2022-11-18T23:18:11.613Z,33.93
2022-11-18T23:21:01.782Z,32.27
2022-11-18T23:23:47.163Z,33.93
2022-11-18T23:26:32.206Z,36.03
2022-11-18T23:29:18.485Z,32.53
2022-11-18T23:32:04.455Z,36.23
2022-11-18T23:34:50.019Z,37.20
2022-11-18T23:37:35.451Z,34.80
2022-11-18T23:40:20.928Z,37.30
2022-11-18T23:43:05.716Z,33.87
2022-11-18T23:45:51.169Z,35.40
2022-11-18T23:48:38.486Z,36.33
2022-11-18T23:51:24.767Z,36.90
2022-11-18T23:54:09.983Z,34.93
2022-11-18T23:56:57.653Z,35.47
2022-11-18T23:59:42.746Z,35.63
